< Typhoon 196737 1967 Season Typhoon 196739 >
Typhoon 196738 (HARRIET)
General InformationTrack Information on Google Maps || Disaster Info.ResourceGoogle EarthGE AnimationAtom FeedGeoJSON
Detalied Best Track (Time Zone = UTC)
Year Month Day Hour Lat. Long. Pressure (hPa) Wind (kt) Class Image Chart
1967 11 15 18 10.0 171.0 1006 0 2 -- Chart
1967 11 16 00 9.6 169.5 1008 0 2 -- Chart
1967 11 16 06 9.4 168.0 1006 0 2 -- Chart
1967 11 16 12 8.3 166.0 1006 0 2 -- Chart
1967 11 16 18 8.1 164.0 1006 0 2 -- Chart
1967 11 17 00 8.6 162.5 1006 0 2 -- Chart
1967 11 17 06 9.3 160.7 1006 0 2 -- Chart
1967 11 17 12 10.0 159.0 1006 0 2 -- Chart
1967 11 17 18 10.6 157.4 1004 0 2 -- Chart
1967 11 18 00 11.2 155.7 1004 0 2 -- Chart
1967 11 18 06 12.0 153.6 1000 0 2 -- Chart
1967 11 18 12 13.2 151.5 985 0 9 -- Chart
1967 11 18 18 14.3 149.8 985 0 9 -- Chart
1967 11 19 00 14.6 147.5 985 0 9 -- Chart
1967 11 19 06 15.1 145.5 980 0 9 -- Chart
1967 11 19 12 15.4 143.4 975 0 9 -- Chart
1967 11 19 18 15.8 141.6 970 0 9 -- Chart
1967 11 20 00 16.4 140.2 965 0 9 -- Chart
1967 11 20 06 17.1 139.0 960 0 9 -- Chart
1967 11 20 12 17.8 138.2 955 0 9 -- Chart
1967 11 20 18 18.4 137.6 955 0 9 -- Chart
1967 11 21 00 19.1 137.4 950 0 9 -- Chart
1967 11 21 06 19.7 137.3 955 0 9 -- Chart
1967 11 21 12 20.2 137.5 955 0 9 -- Chart
1967 11 21 18 20.6 137.7 960 0 9 -- Chart
1967 11 22 00 20.9 137.7 965 0 9 -- Chart
1967 11 22 06 21.2 137.7 970 0 9 -- Chart
1967 11 22 12 21.6 137.8 975 0 9 -- Chart
1967 11 22 18 22.2 137.7 980 0 9 -- Chart
1967 11 23 00 22.6 137.6 985 0 9 -- Chart
1967 11 23 06 23.3 138.0 985 0 9 -- Chart
1967 11 23 12 23.6 138.5 990 0 9 -- Chart
1967 11 23 18 24.1 139.3 1000 0 9 -- Chart
1967 11 24 00 24.5 139.6 1008 0 2 -- Chart
1967 11 24 06 25.0 140.0 1010 0 2 -- Chart
1967 11 24 12 25.6 141.4 1014 0 2 -- Chart
1967 11 24 18 26.0 143.0 1014 0 2 -- Chart
Japan Meteorological Agency Best Track Data | Correction Date : 1989-06-01
< Typhoon 196737 1967 Season Typhoon 196739 >

Help